sensor_id;sensor_type;location;lat;lon;timestamp;P1;durP1;ratioP1;P2;durP2;ratioP2
4638;SDS011;2332;38.646;-9.154;2022-10-22T00:01:17;11.83;;;1.87;;
4638;SDS011;2332;38.646;-9.154;2022-10-22T00:03:44;12.37;;;1.53;;
4638;SDS011;2332;38.646;-9.154;2022-10-22T00:06:10;10.10;;;1.70;;
4638;SDS011;2332;38.646;-9.154;2022-10-22T00:08:35;12.67;;;2.17;;
4638;SDS011;2332;38.646;-9.154;2022-10-22T00:11:08;9.97;;;1.60;;
4638;SDS011;2332;38.646;-9.154;2022-10-22T00:13:37;7.90;;;2.37;;
4638;SDS011;2332;38.646;-9.154;2022-10-22T00:16:05;7.73;;;1.90;;
4638;SDS011;2332;38.646;-9.154;2022-10-22T00:18:31;6.43;;;1.67;;
4638;SDS011;2332;38.646;-9.154;2022-10-22T00:20:57;5.07;;;1.50;;
4638;SDS011;2332;38.646;-9.154;2022-10-22T00:23:22;9.57;;;2.27;;
4638;SDS011;2332;38.646;-9.154;2022-10-22T00:25:48;6.83;;;1.67;;
4638;SDS011;2332;38.646;-9.154;2022-10-22T00:28:13;7.27;;;2.20;;
4638;SDS011;2332;38.646;-9.154;2022-10-22T00:30:39;9.20;;;1.60;;
4638;SDS011;2332;38.646;-9.154;2022-10-22T00:33:05;6.30;;;1.30;;
4638;SDS011;2332;38.646;-9.154;2022-10-22T00:35:31;7.93;;;2.20;;
4638;SDS011;2332;38.646;-9.154;2022-10-22T00:37:57;7.40;;;2.00;;
4638;SDS011;2332;38.646;-9.154;2022-10-22T00:40:22;6.37;;;1.40;;
4638;SDS011;2332;38.646;-9.154;2022-10-22T00:42:48;6.83;;;1.87;;
4638;SDS011;2332;38.646;-9.154;2022-10-22T00:45:18;17.50;;;3.00;;
4638;SDS011;2332;38.646;-9.154;2022-10-22T00:52:58;13.47;;;2.57;;
4638;SDS011;2332;38.646;-9.154;2022-10-22T00:55:25;11.10;;;2.47;;
4638;SDS011;2332;38.646;-9.154;2022-10-22T00:57:51;9.90;;;1.80;;
4638;SDS011;2332;38.646;-9.154;2022-10-22T01:00:19;41.40;;;3.63;;
4638;SDS011;2332;38.646;-9.154;2022-10-22T01:02:45;6.10;;;1.77;;
4638;SDS011;2332;38.646;-9.154;2022-10-22T01:05:12;7.63;;;1.67;;
4638;SDS011;2332;38.646;-9.154;2022-10-22T01:07:44;14.90;;;2.13;;
4638;SDS011;2332;38.646;-9.154;2022-10-22T01:10:17;9.83;;;2.07;;
4638;SDS011;2332;38.646;-9.154;2022-10-22T01:15:44;13.67;;;2.77;;
4638;SDS011;2332;38.646;-9.154;2022-10-22T01:18:54;14.03;;;1.90;;
4638;SDS011;2332;38.646;-9.154;2022-10-22T01:21:42;13.13;;;2.50;;
4638;SDS011;2332;38.646;-9.154;2022-10-22T01:30:18;28.60;;;4.63;;
4638;SDS011;2332;38.646;-9.154;2022-10-22T01:32:49;17.80;;;3.17;;
4638;SDS011;2332;38.646;-9.154;2022-10-22T01:35:18;15.80;;;2.83;;
4638;SDS011;2332;38.646;-9.154;2022-10-22T01:37:49;21.53;;;3.73;;
4638;SDS011;2332;38.646;-9.154;2022-10-22T01:40:18;24.40;;;3.47;;
4638;SDS011;2332;38.646;-9.154;2022-10-22T01:42:54;21.00;;;3.60;;
4638;SDS011;2332;38.646;-9.154;2022-10-22T01:45:20;23.73;;;3.03;;
4638;SDS011;2332;38.646;-9.154;2022-10-22T01:47:53;16.30;;;3.40;;
4638;SDS011;2332;38.646;-9.154;2022-10-22T01:50:31;14.17;;;2.90;;
4638;SDS011;2332;38.646;-9.154;2022-10-22T01:58:52;20.33;;;2.67;;
4638;SDS011;2332;38.646;-9.154;2022-10-22T02:01:34;17.10;;;2.73;;
4638;SDS011;2332;38.646;-9.154;2022-10-22T02:06:41;15.87;;;2.73;;
4638;SDS011;2332;38.646;-9.154;2022-10-22T02:09:08;14.70;;;2.43;;
4638;SDS011;2332;38.646;-9.154;2022-10-22T02:11:34;13.40;;;2.50;;
4638;SDS011;2332;38.646;-9.154;2022-10-22T02:14:01;16.83;;;2.30;;
4638;SDS011;2332;38.646;-9.154;2022-10-22T02:16:33;19.50;;;2.90;;
4638;SDS011;2332;38.646;-9.154;2022-10-22T02:19:01;15.97;;;2.30;;
4638;SDS011;2332;38.646;-9.154;2022-10-22T02:21:30;21.80;;;3.03;;
4638;SDS011;2332;38.646;-9.154;2022-10-22T02:23:56;21.80;;;2.73;;
4638;SDS011;2332;38.646;-9.154;2022-10-22T02:26:24;13.23;;;3.20;;
4638;SDS011;2332;38.646;-9.154;2022-10-22T02:31:37;16.97;;;3.17;;
4638;SDS011;2332;38.646;-9.154;2022-10-22T02:34:09;18.83;;;3.03;;
4638;SDS011;2332;38.646;-9.154;2022-10-22T02:36:38;10.80;;;2.30;;
4638;SDS011;2332;38.646;-9.154;2022-10-22T02:39:05;14.13;;;2.30;;
4638;SDS011;2332;38.646;-9.154;2022-10-22T02:41:32;10.47;;;2.40;;
4638;SDS011;2332;38.646;-9.154;2022-10-22T02:43:57;11.07;;;2.27;;
4638;SDS011;2332;38.646;-9.154;2022-10-22T02:46:23;10.50;;;2.30;;
4638;SDS011;2332;38.646;-9.154;2022-10-22T02:48:48;9.67;;;2.33;;
4638;SDS011;2332;38.646;-9.154;2022-10-22T02:51:14;11.27;;;2.37;;
4638;SDS011;2332;38.646;-9.154;2022-10-22T02:53:40;15.83;;;2.33;;
4638;SDS011;2332;38.646;-9.154;2022-10-22T02:56:06;15.93;;;2.53;;
4638;SDS011;2332;38.646;-9.154;2022-10-22T02:58:31;21.50;;;3.17;;
4638;SDS011;2332;38.646;-9.154;2022-10-22T03:00:59;10.17;;;2.40;;
4638;SDS011;2332;38.646;-9.154;2022-10-22T03:03:25;15.37;;;2.43;;
4638;SDS011;2332;38.646;-9.154;2022-10-22T03:05:51;17.10;;;2.60;;
4638;SDS011;2332;38.646;-9.154;2022-10-22T03:08:16;17.43;;;2.50;;
4638;SDS011;2332;38.646;-9.154;2022-10-22T03:10:42;14.13;;;2.60;;
4638;SDS011;2332;38.646;-9.154;2022-10-22T03:13:07;18.83;;;3.07;;
4638;SDS011;2332;38.646;-9.154;2022-10-22T03:15:33;22.47;;;3.40;;
4638;SDS011;2332;38.646;-9.154;2022-10-22T03:17:59;21.53;;;3.10;;
4638;SDS011;2332;38.646;-9.154;2022-10-22T03:20:24;18.90;;;2.93;;
4638;SDS011;2332;38.646;-9.154;2022-10-22T03:22:49;12.60;;;2.10;;
4638;SDS011;2332;38.646;-9.154;2022-10-22T03:25:16;20.27;;;3.10;;
4638;SDS011;2332;38.646;-9.154;2022-10-22T03:27:44;17.43;;;2.73;;
4638;SDS011;2332;38.646;-9.154;2022-10-22T03:30:11;15.10;;;2.40;;
4638;SDS011;2332;38.646;-9.154;2022-10-22T03:32:36;15.70;;;3.60;;
4638;SDS011;2332;38.646;-9.154;2022-10-22T03:35:02;17.83;;;2.77;;
4638;SDS011;2332;38.646;-9.154;2022-10-22T03:37:29;23.93;;;3.67;;
4638;SDS011;2332;38.646;-9.154;2022-10-22T03:39:55;16.27;;;2.30;;
4638;SDS011;2332;38.646;-9.154;2022-10-22T03:42:20;18.90;;;2.67;;
4638;SDS011;2332;38.646;-9.154;2022-10-22T03:44:46;12.67;;;2.57;;
4638;SDS011;2332;38.646;-9.154;2022-10-22T03:47:12;11.77;;;2.37;;
4638;SDS011;2332;38.646;-9.154;2022-10-22T03:49:38;14.67;;;2.23;;
4638;SDS011;2332;38.646;-9.154;2022-10-22T03:52:04;19.00;;;2.97;;
4638;SDS011;2332;38.646;-9.154;2022-10-22T03:54:37;12.67;;;2.17;;
4638;SDS011;2332;38.646;-9.154;2022-10-22T03:57:04;22.00;;;3.03;;
4638;SDS011;2332;38.646;-9.154;2022-10-22T03:59:37;19.67;;;2.53;;
4638;SDS011;2332;38.646;-9.154;2022-10-22T04:02:03;6.90;;;2.20;;
4638;SDS011;2332;38.646;-9.154;2022-10-22T04:04:29;13.67;;;2.67;;
4638;SDS011;2332;38.646;-9.154;2022-10-22T04:06:57;17.73;;;3.10;;
4638;SDS011;2332;38.646;-9.154;2022-10-22T04:09:23;13.13;;;2.50;;
4638;SDS011;2332;38.646;-9.154;2022-10-22T04:11:49;16.60;;;2.43;;
4638;SDS011;2332;38.646;-9.154;2022-10-22T04:14:14;20.77;;;3.00;;
4638;SDS011;2332;38.646;-9.154;2022-10-22T04:16:40;14.47;;;2.20;;
4638;SDS011;2332;38.646;-9.154;2022-10-22T04:19:06;18.13;;;3.00;;
4638;SDS011;2332;38.646;-9.154;2022-10-22T04:21:32;11.37;;;3.00;;
4638;SDS011;2332;38.646;-9.154;2022-10-22T04:23:57;19.03;;;3.20;;
4638;SDS011;2332;38.646;-9.154;2022-10-22T04:26:23;16.47;;;3.37;;
4638;SDS011;2332;38.646;-9.154;2022-10-22T04:28:49;12.70;;;2.70;;
4638;SDS011;2332;38.646;-9.154;2022-10-22T04:31:17;18.23;;;2.80;;
4638;SDS011;2332;38.646;-9.154;2022-10-22T04:33:43;15.57;;;2.50;;
4638;SDS011;2332;38.646;-9.154;2022-10-22T04:36:10;25.30;;;3.47;;
4638;SDS011;2332;38.646;-9.154;2022-10-22T04:38:37;19.17;;;3.20;;
4638;SDS011;2332;38.646;-9.154;2022-10-22T04:43:44;17.23;;;3.47;;
4638;SDS011;2332;38.646;-9.154;2022-10-22T04:46:11;15.17;;;2.93;;
4638;SDS011;2332;38.646;-9.154;2022-10-22T04:48:38;29.10;;;3.80;;
4638;SDS011;2332;38.646;-9.154;2022-10-22T04:51:05;22.27;;;3.77;;
4638;SDS011;2332;38.646;-9.154;2022-10-22T04:53:33;20.27;;;3.20;;
4638;SDS011;2332;38.646;-9.154;2022-10-22T04:56:05;31.17;;;3.67;;
4638;SDS011;2332;38.646;-9.154;2022-10-22T04:58:32;17.50;;;3.90;;
4638;SDS011;2332;38.646;-9.154;2022-10-22T05:00:57;19.60;;;3.97;;
4638;SDS011;2332;38.646;-9.154;2022-10-22T05:03:23;19.53;;;3.47;;
4638;SDS011;2332;38.646;-9.154;2022-10-22T05:05:49;25.07;;;3.80;;
4638;SDS011;2332;38.646;-9.154;2022-10-22T05:08:15;18.90;;;3.67;;
4638;SDS011;2332;38.646;-9.154;2022-10-22T05:10:40;21.07;;;3.57;;
4638;SDS011;2332;38.646;-9.154;2022-10-22T05:13:06;25.43;;;3.93;;
4638;SDS011;2332;38.646;-9.154;2022-10-22T05:15:32;20.97;;;3.73;;
4638;SDS011;2332;38.646;-9.154;2022-10-22T05:17:58;21.53;;;3.07;;
4638;SDS011;2332;38.646;-9.154;2022-10-22T05:20:23;19.03;;;3.47;;
4638;SDS011;2332;38.646;-9.154;2022-10-22T05:22:49;29.83;;;3.63;;
4638;SDS011;2332;38.646;-9.154;2022-10-22T05:25:14;24.20;;;3.80;;
4638;SDS011;2332;38.646;-9.154;2022-10-22T05:27:40;19.93;;;4.13;;
4638;SDS011;2332;38.646;-9.154;2022-10-22T05:30:05;13.63;;;2.90;;
4638;SDS011;2332;38.646;-9.154;2022-10-22T05:32:33;13.10;;;3.23;;
4638;SDS011;2332;38.646;-9.154;2022-10-22T05:34:59;18.03;;;3.33;;
4638;SDS011;2332;38.646;-9.154;2022-10-22T05:37:24;18.67;;;3.33;;
4638;SDS011;2332;38.646;-9.154;2022-10-22T05:39:50;22.23;;;3.53;;
4638;SDS011;2332;38.646;-9.154;2022-10-22T05:42:15;20.27;;;3.20;;
4638;SDS011;2332;38.646;-9.154;2022-10-22T05:44:41;27.30;;;4.40;;
4638;SDS011;2332;38.646;-9.154;2022-10-22T05:47:06;21.53;;;2.60;;
4638;SDS011;2332;38.646;-9.154;2022-10-22T05:49:32;17.03;;;3.23;;
4638;SDS011;2332;38.646;-9.154;2022-10-22T05:51:57;16.60;;;2.90;;
4638;SDS011;2332;38.646;-9.154;2022-10-22T05:54:23;23.90;;;4.30;;
4638;SDS011;2332;38.646;-9.154;2022-10-22T05:56:49;15.27;;;3.13;;
4638;SDS011;2332;38.646;-9.154;2022-10-22T05:59:14;23.57;;;3.53;;
4638;SDS011;2332;38.646;-9.154;2022-10-22T06:01:40;17.30;;;3.17;;
4638;SDS011;2332;38.646;-9.154;2022-10-22T06:04:06;25.77;;;3.20;;
4638;SDS011;2332;38.646;-9.154;2022-10-22T06:06:35;14.77;;;3.07;;
4638;SDS011;2332;38.646;-9.154;2022-10-22T06:09:14;23.67;;;3.33;;
4638;SDS011;2332;38.646;-9.154;2022-10-22T06:11:53;13.57;;;3.13;;
4638;SDS011;2332;38.646;-9.154;2022-10-22T06:14:20;15.30;;;3.30;;
4638;SDS011;2332;38.646;-9.154;2022-10-22T06:16:49;17.10;;;2.80;;
4638;SDS011;2332;38.646;-9.154;2022-10-22T06:19:16;17.13;;;3.10;;
4638;SDS011;2332;38.646;-9.154;2022-10-22T06:21:43;15.93;;;2.80;;
4638;SDS011;2332;38.646;-9.154;2022-10-22T06:24:09;15.33;;;3.17;;
4638;SDS011;2332;38.646;-9.154;2022-10-22T06:26:35;17.63;;;2.97;;
4638;SDS011;2332;38.646;-9.154;2022-10-22T06:29:01;19.53;;;3.20;;
4638;SDS011;2332;38.646;-9.154;2022-10-22T06:31:26;27.10;;;2.90;;
4638;SDS011;2332;38.646;-9.154;2022-10-22T06:33:53;11.00;;;2.57;;
4638;SDS011;2332;38.646;-9.154;2022-10-22T06:36:20;15.93;;;2.30;;
4638;SDS011;2332;38.646;-9.154;2022-10-22T06:38:49;15.90;;;2.80;;
4638;SDS011;2332;38.646;-9.154;2022-10-22T06:41:15;24.23;;;3.47;;
4638;SDS011;2332;38.646;-9.154;2022-10-22T06:43:42;18.53;;;2.67;;
4638;SDS011;2332;38.646;-9.154;2022-10-22T06:46:09;19.77;;;2.70;;
4638;SDS011;2332;38.646;-9.154;2022-10-22T06:48:36;14.20;;;2.50;;
4638;SDS011;2332;38.646;-9.154;2022-10-22T06:51:06;24.20;;;3.50;;
4638;SDS011;2332;38.646;-9.154;2022-10-22T06:53:33;18.77;;;4.80;;
4638;SDS011;2332;38.646;-9.154;2022-10-22T06:56:03;18.77;;;2.90;;
4638;SDS011;2332;38.646;-9.154;2022-10-22T06:58:30;21.30;;;2.70;;
4638;SDS011;2332;38.646;-9.154;2022-10-22T07:01:06;14.27;;;3.03;;
4638;SDS011;2332;38.646;-9.154;2022-10-22T07:03:31;11.73;;;2.33;;
4638;SDS011;2332;38.646;-9.154;2022-10-22T07:06:04;18.20;;;2.57;;
4638;SDS011;2332;38.646;-9.154;2022-10-22T07:08:31;14.90;;;2.33;;
4638;SDS011;2332;38.646;-9.154;2022-10-22T07:11:03;28.43;;;3.43;;
4638;SDS011;2332;38.646;-9.154;2022-10-22T07:13:33;22.33;;;3.57;;
4638;SDS011;2332;38.646;-9.154;2022-10-22T07:15:59;12.77;;;2.17;;
4638;SDS011;2332;38.646;-9.154;2022-10-22T07:18:24;11.40;;;1.90;;
4638;SDS011;2332;38.646;-9.154;2022-10-22T07:20:50;9.87;;;2.07;;
4638;SDS011;2332;38.646;-9.154;2022-10-22T07:23:15;11.03;;;1.90;;
4638;SDS011;2332;38.646;-9.154;2022-10-22T07:25:44;10.27;;;2.13;;
4638;SDS011;2332;38.646;-9.154;2022-10-22T07:28:10;15.43;;;2.60;;
4638;SDS011;2332;38.646;-9.154;2022-10-22T07:30:35;20.87;;;2.53;;
4638;SDS011;2332;38.646;-9.154;2022-10-22T07:33:01;10.83;;;2.17;;
4638;SDS011;2332;38.646;-9.154;2022-10-22T07:35:30;5.00;;;2.03;;
4638;SDS011;2332;38.646;-9.154;2022-10-22T07:37:56;5.93;;;1.93;;
4638;SDS011;2332;38.646;-9.154;2022-10-22T07:40:21;7.23;;;2.20;;
4638;SDS011;2332;38.646;-9.154;2022-10-22T07:42:47;9.07;;;1.97;;
4638;SDS011;2332;38.646;-9.154;2022-10-22T07:45:12;12.90;;;1.97;;
4638;SDS011;2332;38.646;-9.154;2022-10-22T07:47:38;10.30;;;2.37;;
4638;SDS011;2332;38.646;-9.154;2022-10-22T07:50:04;9.40;;;2.03;;
4638;SDS011;2332;38.646;-9.154;2022-10-22T07:52:31;12.73;;;1.87;;
4638;SDS011;2332;38.646;-9.154;2022-10-22T07:54:57;15.47;;;2.13;;
4638;SDS011;2332;38.646;-9.154;2022-10-22T07:57:23;9.40;;;1.60;;
4638;SDS011;2332;38.646;-9.154;2022-10-22T07:59:48;6.40;;;2.23;;
4638;SDS011;2332;38.646;-9.154;2022-10-22T08:02:14;12.53;;;1.87;;
4638;SDS011;2332;38.646;-9.154;2022-10-22T08:04:40;10.50;;;1.90;;
4638;SDS011;2332;38.646;-9.154;2022-10-22T08:07:05;10.17;;;2.33;;
4638;SDS011;2332;38.646;-9.154;2022-10-22T08:09:31;10.17;;;1.83;;
4638;SDS011;2332;38.646;-9.154;2022-10-22T08:11:56;9.53;;;1.87;;
4638;SDS011;2332;38.646;-9.154;2022-10-22T08:14:22;11.83;;;2.27;;
4638;SDS011;2332;38.646;-9.154;2022-10-22T08:16:48;9.33;;;1.80;;
4638;SDS011;2332;38.646;-9.154;2022-10-22T08:19:13;11.13;;;1.67;;
4638;SDS011;2332;38.646;-9.154;2022-10-22T08:21:43;8.70;;;1.77;;
4638;SDS011;2332;38.646;-9.154;2022-10-22T08:24:09;10.60;;;1.60;;
4638;SDS011;2332;38.646;-9.154;2022-10-22T08:26:35;6.33;;;1.47;;
4638;SDS011;2332;38.646;-9.154;2022-10-22T08:29:00;12.73;;;1.70;;
4638;SDS011;2332;38.646;-9.154;2022-10-22T08:31:26;8.63;;;2.13;;
4638;SDS011;2332;38.646;-9.154;2022-10-22T08:33:51;10.57;;;1.70;;
4638;SDS011;2332;38.646;-9.154;2022-10-22T08:36:17;10.30;;;1.80;;
4638;SDS011;2332;38.646;-9.154;2022-10-22T08:38:42;15.50;;;2.73;;
4638;SDS011;2332;38.646;-9.154;2022-10-22T08:49:27;11.37;;;2.33;;
4638;SDS011;2332;38.646;-9.154;2022-10-22T08:51:56;7.17;;;1.80;;
4638;SDS011;2332;38.646;-9.154;2022-10-22T08:57:18;13.10;;;1.70;;
4638;SDS011;2332;38.646;-9.154;2022-10-22T09:00:08;6.70;;;1.87;;
4638;SDS011;2332;38.646;-9.154;2022-10-22T09:03:00;11.70;;;2.50;;
4638;SDS011;2332;38.646;-9.154;2022-10-22T09:05:47;8.63;;;1.80;;
4638;SDS011;2332;38.646;-9.154;2022-10-22T09:08:35;16.50;;;2.73;;
4638;SDS011;2332;38.646;-9.154;2022-10-22T09:11:02;11.13;;;2.00;;
4638;SDS011;2332;38.646;-9.154;2022-10-22T09:13:30;12.90;;;2.83;;
4638;SDS011;2332;38.646;-9.154;2022-10-22T09:15:59;10.73;;;2.57;;
4638;SDS011;2332;38.646;-9.154;2022-10-22T09:27:16;13.37;;;2.90;;
4638;SDS011;2332;38.646;-9.154;2022-10-22T09:29:46;19.70;;;3.23;;
4638;SDS011;2332;38.646;-9.154;2022-10-22T09:32:13;12.47;;;2.57;;
4638;SDS011;2332;38.646;-9.154;2022-10-22T09:34:39;12.83;;;2.77;;
4638;SDS011;2332;38.646;-9.154;2022-10-22T09:37:06;13.77;;;2.87;;
4638;SDS011;2332;38.646;-9.154;2022-10-22T09:42:06;13.60;;;3.27;;
4638;SDS011;2332;38.646;-9.154;2022-10-22T09:44:32;20.87;;;2.43;;
4638;SDS011;2332;38.646;-9.154;2022-10-22T09:47:02;11.50;;;2.07;;
4638;SDS011;2332;38.646;-9.154;2022-10-22T09:49:32;23.67;;;3.43;;
4638;SDS011;2332;38.646;-9.154;2022-10-22T09:51:59;17.33;;;3.60;;
4638;SDS011;2332;38.646;-9.154;2022-10-22T09:54:47;21.73;;;4.13;;
4638;SDS011;2332;38.646;-9.154;2022-10-22T09:57:17;20.70;;;3.80;;
4638;SDS011;2332;38.646;-9.154;2022-10-22T09:59:48;18.57;;;3.50;;
4638;SDS011;2332;38.646;-9.154;2022-10-22T10:02:15;16.17;;;3.27;;
4638;SDS011;2332;38.646;-9.154;2022-10-22T10:04:47;11.50;;;2.53;;
4638;SDS011;2332;38.646;-9.154;2022-10-22T10:07:19;12.13;;;2.50;;
4638;SDS011;2332;38.646;-9.154;2022-10-22T10:09:48;9.10;;;2.60;;
4638;SDS011;2332;38.646;-9.154;2022-10-22T10:12:59;9.90;;;2.30;;
4638;SDS011;2332;38.646;-9.154;2022-10-22T10:31:29;12.03;;;2.40;;
4638;SDS011;2332;38.646;-9.154;2022-10-22T10:39:23;10.07;;;2.00;;
4638;SDS011;2332;38.646;-9.154;2022-10-22T10:48:03;14.40;;;3.20;;
4638;SDS011;2332;38.646;-9.154;2022-10-22T10:59:16;17.70;;;3.50;;
4638;SDS011;2332;38.646;-9.154;2022-10-22T11:07:33;17.60;;;3.43;;
4638;SDS011;2332;38.646;-9.154;2022-10-22T11:10:39;12.93;;;3.10;;
4638;SDS011;2332;38.646;-9.154;2022-10-22T11:15:41;18.03;;;3.53;;
4638;SDS011;2332;38.646;-9.154;2022-10-22T11:24:02;13.03;;;3.43;;
4638;SDS011;2332;38.646;-9.154;2022-10-22T11:26:32;14.23;;;3.73;;
4638;SDS011;2332;38.646;-9.154;2022-10-22T11:29:06;18.77;;;3.90;;
4638;SDS011;2332;38.646;-9.154;2022-10-22T11:31:36;17.60;;;5.70;;
4638;SDS011;2332;38.646;-9.154;2022-10-22T11:34:18;18.60;;;4.20;;
4638;SDS011;2332;38.646;-9.154;2022-10-22T11:36:46;15.53;;;4.90;;
4638;SDS011;2332;38.646;-9.154;2022-10-22T11:45:33;20.33;;;4.57;;
4638;SDS011;2332;38.646;-9.154;2022-10-22T11:58:42;15.50;;;4.20;;
4638;SDS011;2332;38.646;-9.154;2022-10-22T12:14:24;19.30;;;4.73;;
4638;SDS011;2332;38.646;-9.154;2022-10-22T12:19:42;25.43;;;4.73;;
4638;SDS011;2332;38.646;-9.154;2022-10-22T12:22:29;22.43;;;4.53;;
4638;SDS011;2332;38.646;-9.154;2022-10-22T12:24:58;23.43;;;4.83;;
4638;SDS011;2332;38.646;-9.154;2022-10-22T12:27:35;24.07;;;6.30;;
4638;SDS011;2332;38.646;-9.154;2022-10-22T12:30:14;25.40;;;4.57;;
4638;SDS011;2332;38.646;-9.154;2022-10-22T12:32:46;20.83;;;4.37;;
4638;SDS011;2332;38.646;-9.154;2022-10-22T12:35:16;27.43;;;6.03;;
4638;SDS011;2332;38.646;-9.154;2022-10-22T12:37:43;24.60;;;5.13;;
4638;SDS011;2332;38.646;-9.154;2022-10-22T12:40:22;24.03;;;4.23;;
4638;SDS011;2332;38.646;-9.154;2022-10-22T12:42:56;24.67;;;4.43;;
4638;SDS011;2332;38.646;-9.154;2022-10-22T12:45:45;17.40;;;3.10;;
4638;SDS011;2332;38.646;-9.154;2022-10-22T12:48:21;21.13;;;4.20;;
4638;SDS011;2332;38.646;-9.154;2022-10-22T12:51:00;28.37;;;4.63;;
4638;SDS011;2332;38.646;-9.154;2022-10-22T12:56:04;22.63;;;4.40;;
4638;SDS011;2332;38.646;-9.154;2022-10-22T12:59:06;27.57;;;5.20;;
4638;SDS011;2332;38.646;-9.154;2022-10-22T13:01:26;23.43;;;4.27;;
4638;SDS011;2332;38.646;-9.154;2022-10-22T13:06:36;32.33;;;4.33;;
4638;SDS011;2332;38.646;-9.154;2022-10-22T13:09:13;18.60;;;3.87;;
4638;SDS011;2332;38.646;-9.154;2022-10-22T13:11:50;22.83;;;4.10;;
4638;SDS011;2332;38.646;-9.154;2022-10-22T13:19:37;29.10;;;4.80;;
4638;SDS011;2332;38.646;-9.154;2022-10-22T13:22:03;20.53;;;4.20;;
4638;SDS011;2332;38.646;-9.154;2022-10-22T13:24:29;20.50;;;3.40;;
4638;SDS011;2332;38.646;-9.154;2022-10-22T13:26:55;24.53;;;4.67;;
4638;SDS011;2332;38.646;-9.154;2022-10-22T13:29:21;34.77;;;6.30;;
4638;SDS011;2332;38.646;-9.154;2022-10-22T13:31:51;21.07;;;3.70;;
4638;SDS011;2332;38.646;-9.154;2022-10-22T13:34:21;23.60;;;4.57;;
4638;SDS011;2332;38.646;-9.154;2022-10-22T13:36:48;17.63;;;4.23;;
4638;SDS011;2332;38.646;-9.154;2022-10-22T13:39:18;16.23;;;3.60;;
4638;SDS011;2332;38.646;-9.154;2022-10-22T13:41:44;15.63;;;3.40;;
4638;SDS011;2332;38.646;-9.154;2022-10-22T13:44:10;19.77;;;2.97;;
4638;SDS011;2332;38.646;-9.154;2022-10-22T13:46:36;12.60;;;3.13;;
4638;SDS011;2332;38.646;-9.154;2022-10-22T13:49:06;20.30;;;3.30;;
4638;SDS011;2332;38.646;-9.154;2022-10-22T13:51:38;25.73;;;3.30;;
4638;SDS011;2332;38.646;-9.154;2022-10-22T13:54:05;12.83;;;3.40;;
4638;SDS011;2332;38.646;-9.154;2022-10-22T13:56:50;23.07;;;3.73;;
4638;SDS011;2332;38.646;-9.154;2022-10-22T13:59:54;13.37;;;3.03;;
4638;SDS011;2332;38.646;-9.154;2022-10-22T14:02:21;14.00;;;2.80;;
4638;SDS011;2332;38.646;-9.154;2022-10-22T14:04:48;10.63;;;2.27;;
4638;SDS011;2332;38.646;-9.154;2022-10-22T14:07:17;16.90;;;3.87;;
4638;SDS011;2332;38.646;-9.154;2022-10-22T14:09:43;15.60;;;3.97;;
4638;SDS011;2332;38.646;-9.154;2022-10-22T14:12:12;26.80;;;3.73;;
4638;SDS011;2332;38.646;-9.154;2022-10-22T14:14:41;14.93;;;3.67;;
4638;SDS011;2332;38.646;-9.154;2022-10-22T14:17:09;20.70;;;3.93;;
4638;SDS011;2332;38.646;-9.154;2022-10-22T14:19:39;25.83;;;5.83;;
4638;SDS011;2332;38.646;-9.154;2022-10-22T14:22:07;27.63;;;4.90;;
4638;SDS011;2332;38.646;-9.154;2022-10-22T14:24:35;17.97;;;4.20;;
4638;SDS011;2332;38.646;-9.154;2022-10-22T14:27:01;15.30;;;3.70;;
4638;SDS011;2332;38.646;-9.154;2022-10-22T14:29:26;17.23;;;3.77;;
4638;SDS011;2332;38.646;-9.154;2022-10-22T14:31:52;21.63;;;3.93;;
4638;SDS011;2332;38.646;-9.154;2022-10-22T14:34:17;20.33;;;4.10;;
4638;SDS011;2332;38.646;-9.154;2022-10-22T14:36:43;23.90;;;3.80;;
4638;SDS011;2332;38.646;-9.154;2022-10-22T14:39:08;16.20;;;3.20;;
4638;SDS011;2332;38.646;-9.154;2022-10-22T14:41:34;17.90;;;3.77;;
4638;SDS011;2332;38.646;-9.154;2022-10-22T14:44:00;13.63;;;3.67;;
4638;SDS011;2332;38.646;-9.154;2022-10-22T14:46:26;18.80;;;3.77;;
4638;SDS011;2332;38.646;-9.154;2022-10-22T14:48:51;11.63;;;3.10;;
4638;SDS011;2332;38.646;-9.154;2022-10-22T14:51:18;24.30;;;3.80;;
4638;SDS011;2332;38.646;-9.154;2022-10-22T14:53:45;11.73;;;3.20;;
4638;SDS011;2332;38.646;-9.154;2022-10-22T14:56:11;17.77;;;3.30;;
4638;SDS011;2332;38.646;-9.154;2022-10-22T14:58:41;17.67;;;2.97;;
4638;SDS011;2332;38.646;-9.154;2022-10-22T15:01:07;17.00;;;2.87;;
4638;SDS011;2332;38.646;-9.154;2022-10-22T15:03:34;15.33;;;3.20;;
4638;SDS011;2332;38.646;-9.154;2022-10-22T15:06:00;16.27;;;2.80;;
4638;SDS011;2332;38.646;-9.154;2022-10-22T15:08:26;14.87;;;3.07;;
4638;SDS011;2332;38.646;-9.154;2022-10-22T15:11:02;17.70;;;2.90;;
4638;SDS011;2332;38.646;-9.154;2022-10-22T15:13:32;16.90;;;3.70;;
4638;SDS011;2332;38.646;-9.154;2022-10-22T15:15:59;23.90;;;4.23;;
4638;SDS011;2332;38.646;-9.154;2022-10-22T15:18:25;16.77;;;3.20;;
4638;SDS011;2332;38.646;-9.154;2022-10-22T15:20:58;21.80;;;4.03;;
4638;SDS011;2332;38.646;-9.154;2022-10-22T15:23:25;19.13;;;4.10;;
4638;SDS011;2332;38.646;-9.154;2022-10-22T15:25:51;14.17;;;3.13;;
4638;SDS011;2332;38.646;-9.154;2022-10-22T15:28:16;16.50;;;3.23;;
4638;SDS011;2332;38.646;-9.154;2022-10-22T15:30:42;18.97;;;3.23;;
4638;SDS011;2332;38.646;-9.154;2022-10-22T15:33:08;17.83;;;3.97;;
4638;SDS011;2332;38.646;-9.154;2022-10-22T15:35:34;10.70;;;3.70;;
4638;SDS011;2332;38.646;-9.154;2022-10-22T15:38:00;16.53;;;3.70;;
4638;SDS011;2332;38.646;-9.154;2022-10-22T15:40:26;16.07;;;3.90;;
4638;SDS011;2332;38.646;-9.154;2022-10-22T15:42:51;22.10;;;3.97;;
4638;SDS011;2332;38.646;-9.154;2022-10-22T15:45:17;9.13;;;3.30;;
4638;SDS011;2332;38.646;-9.154;2022-10-22T15:47:46;14.17;;;3.37;;
4638;SDS011;2332;38.646;-9.154;2022-10-22T15:50:12;17.63;;;3.63;;
4638;SDS011;2332;38.646;-9.154;2022-10-22T15:52:37;14.73;;;3.50;;
4638;SDS011;2332;38.646;-9.154;2022-10-22T15:55:03;16.97;;;3.90;;
4638;SDS011;2332;38.646;-9.154;2022-10-22T15:57:31;8.80;;;4.10;;
4638;SDS011;2332;38.646;-9.154;2022-10-22T15:59:57;18.83;;;4.10;;
4638;SDS011;2332;38.646;-9.154;2022-10-22T16:02:22;18.13;;;3.50;;
4638;SDS011;2332;38.646;-9.154;2022-10-22T16:04:48;10.77;;;3.40;;
4638;SDS011;2332;38.646;-9.154;2022-10-22T16:07:13;22.33;;;4.77;;
4638;SDS011;2332;38.646;-9.154;2022-10-22T16:09:39;12.37;;;3.30;;
4638;SDS011;2332;38.646;-9.154;2022-10-22T16:12:04;14.67;;;3.47;;
4638;SDS011;2332;38.646;-9.154;2022-10-22T16:14:30;12.27;;;3.23;;
4638;SDS011;2332;38.646;-9.154;2022-10-22T16:16:56;11.23;;;2.83;;
4638;SDS011;2332;38.646;-9.154;2022-10-22T16:19:23;14.57;;;2.43;;
4638;SDS011;2332;38.646;-9.154;2022-10-22T16:21:50;11.50;;;2.43;;
4638;SDS011;2332;38.646;-9.154;2022-10-22T16:24:18;13.23;;;2.80;;
4638;SDS011;2332;38.646;-9.154;2022-10-22T16:26:44;10.33;;;2.70;;
4638;SDS011;2332;38.646;-9.154;2022-10-22T16:29:10;10.70;;;2.70;;
4638;SDS011;2332;38.646;-9.154;2022-10-22T16:31:37;13.37;;;2.70;;
4638;SDS011;2332;38.646;-9.154;2022-10-22T16:34:04;17.80;;;2.57;;
4638;SDS011;2332;38.646;-9.154;2022-10-22T16:36:30;14.80;;;2.80;;
4638;SDS011;2332;38.646;-9.154;2022-10-22T16:38:56;14.53;;;3.97;;
4638;SDS011;2332;38.646;-9.154;2022-10-22T16:41:22;18.47;;;3.40;;
4638;SDS011;2332;38.646;-9.154;2022-10-22T16:43:49;15.97;;;2.80;;
4638;SDS011;2332;38.646;-9.154;2022-10-22T16:46:17;12.47;;;3.00;;
4638;SDS011;2332;38.646;-9.154;2022-10-22T16:48:48;15.20;;;3.83;;
4638;SDS011;2332;38.646;-9.154;2022-10-22T16:51:15;27.27;;;3.93;;
4638;SDS011;2332;38.646;-9.154;2022-10-22T16:53:42;14.47;;;3.77;;
4638;SDS011;2332;38.646;-9.154;2022-10-22T16:56:15;11.03;;;3.40;;
4638;SDS011;2332;38.646;-9.154;2022-10-22T16:58:44;14.57;;;3.40;;
4638;SDS011;2332;38.646;-9.154;2022-10-22T17:01:12;14.47;;;3.37;;
4638;SDS011;2332;38.646;-9.154;2022-10-22T17:03:38;15.70;;;3.50;;
4638;SDS011;2332;38.646;-9.154;2022-10-22T17:06:04;14.63;;;3.10;;
4638;SDS011;2332;38.646;-9.154;2022-10-22T17:08:30;18.10;;;3.60;;
4638;SDS011;2332;38.646;-9.154;2022-10-22T17:10:56;13.03;;;2.70;;
4638;SDS011;2332;38.646;-9.154;2022-10-22T17:13:21;15.67;;;2.63;;
4638;SDS011;2332;38.646;-9.154;2022-10-22T17:15:47;8.10;;;2.80;;
4638;SDS011;2332;38.646;-9.154;2022-10-22T17:18:13;12.97;;;3.70;;
4638;SDS011;2332;38.646;-9.154;2022-10-22T17:20:41;15.80;;;3.63;;
4638;SDS011;2332;38.646;-9.154;2022-10-22T17:23:07;12.33;;;2.97;;